createdAt,value
2023-05-10T00:00:09.545Z,63.41
2023-05-10T00:01:09.562Z,60.88
2023-05-10T00:02:09.675Z,61.15
2023-05-10T00:03:09.733Z,62.80
2023-05-10T00:04:09.763Z,61.89
2023-05-10T00:05:09.863Z,60.67
2023-05-10T00:06:09.884Z,62.30
2023-05-10T00:07:09.907Z,60.83
2023-05-10T00:08:09.977Z,61.32
2023-05-10T00:09:10.010Z,59.39
2023-05-10T00:10:10.076Z,60.20
2023-05-10T00:11:10.120Z,61.52
2023-05-10T00:12:10.188Z,61.25
2023-05-10T00:13:10.334Z,61.33
2023-05-10T00:14:10.300Z,63.25
2023-05-10T00:15:10.363Z,59.96
2023-05-10T00:16:10.487Z,62.76
2023-05-10T00:17:10.515Z,60.86
2023-05-10T00:18:10.621Z,62.41
2023-05-10T00:19:10.608Z,64.88
2023-05-10T00:20:10.670Z,60.31
2023-05-10T00:21:10.742Z,59.74
2023-05-10T00:22:10.803Z,60.59
2023-05-10T00:23:11.223Z,63.06
2023-05-10T00:24:10.943Z,63.00
2023-05-10T00:25:11.018Z,63.24
2023-05-10T00:26:11.058Z,59.58
2023-05-10T00:27:11.098Z,61.34
2023-05-10T00:28:11.170Z,60.73
2023-05-10T00:29:11.197Z,58.90
2023-05-10T00:30:11.292Z,62.80
2023-05-10T00:31:11.349Z,64.15
2023-05-10T00:32:11.433Z,61.55
2023-05-10T00:33:11.422Z,61.17
2023-05-10T00:34:11.479Z,59.81
2023-05-10T00:35:11.480Z,61.63
2023-05-10T00:36:13.232Z,62.17
2023-05-10T00:37:11.587Z,62.33
2023-05-10T00:38:11.657Z,60.67
2023-05-10T00:39:11.717Z,61.54
2023-05-10T00:40:11.829Z,61.33
2023-05-10T00:41:11.827Z,61.66
2023-05-10T00:42:11.872Z,60.83
2023-05-10T00:43:11.996Z,61.50
2023-05-10T00:44:11.988Z,60.19
2023-05-10T00:45:12.054Z,62.14
2023-05-10T00:46:12.167Z,61.82
2023-05-10T00:47:12.151Z,59.19
2023-05-10T00:48:12.220Z,60.81
2023-05-10T00:49:12.368Z,62.19
2023-05-10T00:50:12.361Z,60.67
2023-05-10T00:51:12.435Z,61.41
2023-05-10T00:52:12.468Z,59.18
2023-05-10T00:53:12.534Z,61.29
2023-05-10T00:54:12.582Z,60.27
2023-05-10T00:55:12.671Z,61.10
2023-05-10T00:56:12.718Z,59.76
2023-05-10T00:57:12.767Z,61.45
2023-05-10T00:58:12.833Z,61.09
2023-05-10T00:59:12.946Z,60.41
2023-05-10T01:00:12.913Z,58.00
2023-05-10T01:01:13.021Z,62.39
2023-05-10T01:02:13.078Z,60.19
2023-05-10T01:03:13.232Z,61.54
2023-05-10T01:04:13.159Z,60.26
2023-05-10T01:05:13.268Z,61.12
2023-05-10T01:06:13.280Z,62.30
2023-05-10T01:07:13.369Z,59.68
2023-05-10T01:08:13.350Z,59.86
2023-05-10T01:09:13.408Z,59.19
2023-05-10T01:10:13.547Z,59.86
2023-05-10T01:11:13.496Z,58.23
2023-05-10T01:12:13.586Z,60.12
2023-05-10T01:13:13.596Z,58.41
2023-05-10T01:14:13.670Z,58.07
2023-05-10T01:15:13.710Z,59.34
2023-05-10T01:16:13.857Z,58.15
2023-05-10T01:17:13.841Z,58.74
2023-05-10T01:18:13.874Z,57.81
2023-05-10T01:28:28.012Z,25.00
2023-05-10T01:29:27.991Z,25.00
2023-05-10T01:30:28.192Z,25.00
2023-05-10T01:31:28.005Z,25.00
2023-05-10T01:32:28.055Z,25.00
2023-05-10T01:33:27.970Z,25.08
2023-05-10T01:34:27.984Z,24.06
2023-05-10T01:35:27.962Z,25.16
2023-05-10T01:36:28.010Z,25.37
2023-05-10T01:37:27.938Z,25.16
2023-05-10T01:38:27.920Z,27.42
2023-05-10T01:39:27.928Z,25.48
2023-05-10T01:40:27.893Z,25.78
2023-05-10T01:41:27.905Z,25.41
2023-05-10T01:42:27.932Z,27.61
2023-05-10T01:43:27.897Z,25.76
2023-05-10T01:44:27.866Z,26.04
2023-05-10T01:45:27.883Z,28.33
2023-05-10T01:46:27.941Z,26.87
2023-05-10T01:47:27.892Z,27.84
2023-05-10T01:48:27.838Z,27.80
2023-05-10T01:49:27.847Z,26.64
2023-05-10T01:50:27.827Z,25.61
2023-05-10T01:51:27.825Z,29.16
2023-05-10T01:52:27.840Z,26.28
2023-05-10T01:53:27.835Z,25.65
2023-05-10T01:54:27.802Z,26.94
2023-05-10T01:55:27.829Z,29.69
2023-05-10T01:56:27.809Z,26.08
2023-05-10T01:57:27.780Z,26.78
2023-05-10T01:58:27.798Z,28.54
2023-05-10T01:59:27.801Z,25.00
2023-05-10T02:00:27.830Z,28.24
2023-05-10T02:01:27.773Z,28.92
2023-05-10T02:02:27.855Z,27.25
2023-05-10T02:03:27.867Z,26.72
2023-05-10T02:04:27.888Z,27.88
2023-05-10T02:05:27.985Z,28.31
2023-05-10T02:06:28.020Z,26.69
2023-05-10T02:07:28.087Z,27.23
2023-05-10T02:08:28.087Z,25.00
2023-05-10T02:09:28.159Z,28.03
2023-05-10T02:10:28.213Z,28.52
2023-05-10T02:11:28.168Z,32.98
2023-05-10T02:12:28.203Z,31.20
2023-05-10T02:13:28.330Z,30.15
2023-05-10T02:14:28.270Z,26.10
2023-05-10T02:15:28.389Z,29.04
2023-05-10T02:16:28.408Z,31.56
2023-05-10T02:17:28.399Z,27.79
2023-05-10T02:18:28.460Z,29.96
2023-05-10T02:19:28.431Z,27.34
2023-05-10T02:20:28.446Z,29.37
2023-05-10T02:21:28.468Z,29.81
2023-05-10T02:22:28.543Z,29.05
2023-05-10T02:23:28.562Z,28.33
2023-05-10T02:24:28.563Z,27.93
2023-05-10T02:25:28.626Z,29.20
2023-05-10T02:26:28.665Z,27.58
2023-05-10T02:27:28.676Z,29.33
2023-05-10T02:28:28.712Z,29.09
2023-05-10T02:29:28.721Z,28.20
2023-05-10T02:30:28.745Z,26.16
2023-05-10T02:31:28.812Z,27.31
2023-05-10T02:32:28.922Z,28.35
2023-05-10T02:33:28.846Z,27.42
2023-05-10T02:34:28.868Z,29.25
2023-05-10T02:35:28.888Z,28.03
2023-05-10T02:36:28.943Z,27.39
2023-05-10T02:37:28.999Z,30.93
2023-05-10T02:38:29.048Z,29.15
2023-05-10T02:39:29.058Z,29.31
2023-05-10T02:40:29.104Z,27.58
2023-05-10T02:41:29.141Z,27.47
2023-05-10T02:42:29.206Z,26.38
2023-05-10T02:43:29.268Z,27.89
2023-05-10T02:44:29.361Z,27.53
2023-05-10T02:45:29.398Z,26.64
2023-05-10T02:46:29.482Z,30.22
2023-05-10T02:47:29.553Z,29.43
2023-05-10T02:48:29.524Z,29.52
2023-05-10T02:49:29.583Z,27.38
2023-05-10T02:50:29.574Z,28.01
2023-05-10T02:51:29.627Z,29.10
2023-05-10T02:52:29.635Z,28.27
2023-05-10T02:53:29.725Z,31.16
2023-05-10T02:54:30.267Z,28.16
2023-05-10T02:55:29.773Z,29.47
2023-05-10T02:56:29.836Z,28.23
2023-05-10T02:57:29.858Z,30.52
2023-05-10T02:58:29.862Z,30.05
2023-05-10T02:59:29.974Z,29.37
2023-05-10T03:00:29.999Z,25.97
2023-05-10T03:01:30.147Z,29.14
2023-05-10T03:02:30.147Z,28.84
2023-05-10T03:03:30.189Z,30.19
2023-05-10T03:04:30.295Z,31.22
2023-05-10T03:05:30.360Z,28.31
2023-05-10T03:06:30.372Z,29.40
2023-05-10T03:07:30.457Z,28.45
2023-05-10T03:08:30.484Z,28.53
2023-05-10T03:09:30.503Z,27.42
2023-05-10T03:10:30.514Z,29.66
2023-05-10T03:11:30.551Z,28.37
2023-05-10T03:12:30.510Z,27.48
2023-05-10T03:13:30.597Z,28.43
2023-05-10T03:14:30.524Z,28.88
2023-05-10T03:15:30.592Z,29.66
2023-05-10T03:16:30.739Z,29.18
2023-05-10T03:17:30.601Z,29.23
2023-05-10T03:18:30.594Z,27.96
2023-05-10T03:19:30.729Z,28.31
2023-05-10T03:20:30.627Z,28.86
2023-05-10T03:21:30.656Z,26.95
2023-05-10T03:22:30.737Z,27.98
2023-05-10T03:23:30.695Z,29.21
2023-05-10T03:24:30.729Z,28.70
2023-05-10T03:25:30.724Z,28.40
2023-05-10T03:26:30.744Z,27.82
2023-05-10T03:27:30.779Z,32.18
2023-05-10T03:28:30.848Z,28.34
2023-05-10T03:29:30.861Z,28.57
2023-05-10T03:30:30.888Z,28.95
2023-05-10T03:31:30.956Z,28.88
2023-05-10T03:32:30.952Z,28.68
2023-05-10T03:33:30.959Z,28.82
2023-05-10T03:34:31.074Z,30.52
2023-05-10T03:35:31.083Z,30.97
2023-05-10T03:36:31.148Z,31.64
2023-05-10T03:37:31.220Z,26.06
2023-05-10T03:38:31.295Z,29.52
2023-05-10T03:39:31.373Z,29.44
2023-05-10T03:40:31.391Z,28.17
2023-05-10T03:41:31.404Z,25.33
2023-05-10T03:42:31.424Z,27.80
2023-05-10T03:43:31.471Z,27.62
2023-05-10T03:44:31.509Z,32.03
2023-05-10T03:45:31.480Z,29.89
2023-05-10T03:46:31.482Z,29.83
2023-05-10T03:47:31.533Z,31.61
2023-05-10T03:48:31.532Z,28.35
2023-05-10T03:49:31.619Z,30.49
2023-05-10T03:50:31.664Z,29.51
2023-05-10T03:51:31.738Z,29.33
2023-05-10T03:52:31.799Z,27.91
2023-05-10T03:53:31.863Z,31.83
2023-05-10T03:54:31.946Z,30.23
2023-05-10T03:55:31.994Z,30.92
2023-05-10T03:56:32.095Z,30.75
2023-05-10T03:57:32.119Z,31.44
2023-05-10T03:58:32.191Z,32.33
2023-05-10T03:59:32.294Z,30.97
2023-05-10T04:00:32.308Z,31.72
2023-05-10T04:01:32.377Z,31.53
2023-05-10T04:02:32.519Z,29.97
2023-05-10T04:03:32.588Z,30.14
2023-05-10T04:04:32.571Z,29.59
2023-05-10T04:05:32.632Z,28.45
2023-05-10T04:06:32.718Z,29.44
2023-05-10T04:07:32.717Z,29.50
2023-05-10T04:08:32.717Z,30.27
2023-05-10T04:09:32.729Z,31.21
2023-05-10T04:10:32.744Z,28.22
2023-05-10T04:11:32.782Z,29.94
2023-05-10T04:12:32.813Z,31.40
2023-05-10T04:13:32.885Z,31.47
2023-05-10T04:14:32.954Z,29.62
2023-05-10T04:15:33.002Z,31.70
2023-05-10T04:16:33.072Z,31.09
2023-05-10T04:17:33.081Z,27.46
2023-05-10T04:18:33.097Z,32.86
2023-05-10T04:19:33.101Z,28.45
2023-05-10T04:20:33.105Z,28.29
2023-05-10T04:21:33.134Z,30.92
2023-05-10T04:22:33.169Z,30.89
2023-05-10T04:23:33.217Z,32.04
2023-05-10T04:24:33.245Z,29.10
2023-05-10T04:25:33.268Z,30.29
2023-05-10T04:26:33.299Z,31.88
2023-05-10T04:27:33.439Z,32.31
2023-05-10T04:28:33.382Z,29.03
2023-05-10T04:29:33.754Z,30.39
2023-05-10T04:30:33.529Z,28.09
2023-05-10T04:31:33.512Z,30.88
2023-05-10T04:32:33.606Z,29.97
2023-05-10T04:33:33.576Z,30.94
2023-05-10T04:34:33.596Z,33.08
2023-05-10T04:35:33.623Z,29.76
2023-05-10T04:36:33.773Z,29.28
2023-05-10T04:37:33.664Z,29.88
2023-05-10T04:38:33.747Z,32.08
2023-05-10T04:39:33.742Z,30.95
2023-05-10T04:40:33.744Z,29.54
2023-05-10T04:41:33.817Z,29.09
2023-05-10T04:42:33.786Z,32.04
2023-05-10T04:43:33.837Z,30.40
2023-05-10T04:44:33.920Z,28.97
2023-05-10T04:45:33.910Z,31.66
2023-05-10T04:46:34.008Z,30.94
2023-05-10T04:47:33.959Z,30.97
2023-05-10T04:48:33.994Z,29.70
2023-05-10T04:49:34.061Z,31.52
2023-05-10T04:50:34.120Z,28.03
2023-05-10T04:51:34.125Z,30.63
2023-05-10T04:52:34.136Z,29.20
2023-05-10T04:53:34.164Z,29.49
2023-05-10T04:54:34.203Z,29.21
2023-05-10T04:55:34.240Z,31.62
2023-05-10T04:56:34.257Z,30.62
2023-05-10T04:57:34.280Z,29.94
2023-05-10T04:58:34.279Z,28.25
2023-05-10T04:59:34.381Z,28.34
2023-05-10T05:00:34.346Z,28.73
2023-05-10T05:01:34.422Z,28.85
2023-05-10T05:02:34.504Z,27.87
2023-05-10T05:03:34.621Z,29.26
2023-05-10T05:04:34.595Z,32.77
2023-05-10T05:05:34.649Z,28.22
2023-05-10T05:06:34.725Z,30.10
2023-05-10T05:07:34.706Z,29.22
2023-05-10T05:08:34.757Z,30.03
2023-05-10T05:09:34.786Z,30.13
2023-05-10T05:10:34.793Z,28.58
2023-05-10T05:11:34.820Z,28.69
2023-05-10T05:12:34.857Z,29.76
2023-05-10T05:13:34.856Z,30.07
2023-05-10T05:14:34.938Z,31.52
2023-05-10T05:15:34.950Z,29.66
2023-05-10T05:16:35.096Z,33.24
2023-05-10T05:17:35.024Z,31.20
2023-05-10T05:18:34.997Z,29.35
2023-05-10T05:19:35.053Z,27.22
2023-05-10T05:20:35.089Z,27.97
2023-05-10T05:21:35.074Z,28.07
2023-05-10T05:22:35.126Z,27.65
2023-05-10T05:23:35.131Z,30.14
2023-05-10T05:24:35.129Z,29.26
2023-05-10T05:25:35.142Z,30.30
2023-05-10T05:26:35.311Z,25.91
2023-05-10T05:27:35.229Z,27.02
2023-05-10T05:28:35.267Z,28.25
2023-05-10T05:29:35.320Z,29.30
2023-05-10T05:30:35.335Z,28.75
2023-05-10T05:31:35.370Z,30.29
2023-05-10T05:32:35.417Z,30.12
2023-05-10T05:33:35.453Z,29.76
2023-05-10T05:34:35.535Z,33.30
2023-05-10T05:35:35.528Z,42.41
2023-05-10T05:36:37.080Z,47.78
2023-05-10T05:37:35.548Z,57.19
2023-05-10T05:38:35.593Z,59.81
2023-05-10T05:39:35.813Z,60.88
2023-05-10T05:40:35.702Z,77.03
2023-05-10T05:41:35.696Z,90.87
2023-05-10T05:42:35.767Z,120.98
2023-05-10T05:43:37.533Z,133.42
2023-05-10T05:44:36.042Z,139.19
2023-05-10T05:45:36.132Z,131.22
2023-05-10T05:46:36.051Z,130.34
2023-05-10T05:47:36.141Z,131.35
2023-05-10T05:48:36.194Z,134.32
2023-05-10T05:49:36.254Z,130.51
2023-05-10T05:50:36.318Z,131.62
2023-05-10T05:51:36.488Z,132.27
2023-05-10T05:52:36.453Z,131.34
2023-05-10T05:53:36.448Z,130.59
2023-05-10T05:54:36.543Z,131.90
2023-05-10T05:55:36.573Z,127.52
2023-05-10T05:56:36.636Z,130.92
2023-05-10T05:57:36.710Z,130.64
2023-05-10T05:58:36.876Z,130.91
2023-05-10T05:59:36.848Z,134.36
2023-05-10T06:00:36.858Z,133.12
2023-05-10T06:01:37.067Z,131.96
2023-05-10T06:02:37.089Z,131.80
2023-05-10T06:03:37.083Z,135.64
2023-05-10T06:04:37.206Z,137.23
2023-05-10T06:05:37.800Z,136.22
2023-05-10T06:06:37.226Z,136.19
2023-05-10T06:07:37.323Z,138.21
2023-05-10T06:08:37.349Z,141.88
2023-05-10T06:09:37.424Z,140.23
2023-05-10T06:10:37.556Z,139.01
2023-05-10T06:11:37.506Z,143.94
2023-05-10T06:12:37.663Z,144.94
2023-05-10T06:13:37.540Z,142.18
2023-05-10T06:14:37.673Z,147.25
2023-05-10T06:15:37.730Z,145.74
2023-05-10T06:16:37.841Z,149.20
2023-05-10T06:17:37.770Z,150.09
2023-05-10T06:18:37.742Z,148.08
2023-05-10T06:19:37.791Z,152.46
2023-05-10T06:20:37.795Z,152.39
2023-05-10T06:21:37.848Z,154.49
2023-05-10T06:22:37.951Z,154.06
2023-05-10T06:23:38.007Z,152.78
2023-05-10T06:24:38.018Z,155.91
2023-05-10T06:25:38.068Z,155.32
2023-05-10T06:26:38.144Z,153.57
2023-05-10T06:27:38.158Z,152.65
2023-05-10T06:28:38.233Z,153.85
2023-05-10T06:29:38.227Z,155.10
2023-05-10T06:30:38.264Z,155.12
2023-05-10T06:31:38.299Z,160.41
2023-05-10T06:32:38.413Z,156.50
2023-05-10T06:33:38.375Z,157.44
2023-05-10T06:34:38.428Z,162.63
2023-05-10T06:35:38.433Z,161.49
2023-05-10T06:36:38.481Z,161.10
2023-05-10T06:37:38.519Z,173.23
2023-05-10T06:38:38.685Z,185.37
2023-05-10T06:39:38.855Z,172.73
2023-05-10T06:40:40.364Z,139.02
2023-05-10T06:41:39.302Z,154.38
2023-05-10T06:42:38.573Z,161.42
2023-05-10T06:43:38.604Z,166.33
2023-05-10T06:44:38.859Z,159.33
2023-05-10T06:45:38.723Z,159.10
2023-05-10T06:46:38.832Z,162.50
2023-05-10T06:47:39.540Z,163.74
2023-05-10T06:48:38.943Z,162.12
2023-05-10T06:49:38.941Z,170.54
2023-05-10T06:50:38.981Z,169.49
2023-05-10T06:51:39.013Z,167.11
2023-05-10T06:52:39.064Z,169.03
2023-05-10T06:53:39.088Z,171.37
2023-05-10T06:54:39.162Z,166.95
2023-05-10T06:55:39.166Z,171.89
2023-05-10T06:56:39.195Z,173.83
2023-05-10T06:57:39.245Z,177.35
2023-05-10T06:58:39.331Z,178.08
2023-05-10T06:59:39.373Z,177.33
2023-05-10T07:00:40.306Z,182.20
2023-05-10T07:01:39.441Z,179.95
2023-05-10T07:02:39.403Z,182.40
2023-05-10T07:03:39.398Z,187.87
2023-05-10T07:04:39.551Z,186.81
2023-05-10T07:05:39.632Z,185.17
2023-05-10T07:06:39.481Z,185.40
2023-05-10T07:07:39.450Z,189.37
2023-05-10T07:08:39.466Z,159.72
2023-05-10T07:09:39.517Z,159.35
2023-05-10T07:10:39.553Z,144.16
2023-05-10T07:11:39.525Z,145.33
2023-05-10T07:12:39.696Z,129.92
2023-05-10T07:13:39.745Z,136.17
2023-05-10T07:14:39.634Z,170.47
2023-05-10T07:15:39.662Z,192.54
2023-05-10T07:16:39.762Z,192.45
2023-05-10T07:17:40.430Z,190.18
2023-05-10T07:18:39.761Z,189.09
2023-05-10T07:19:39.761Z,187.42
2023-05-10T07:20:39.800Z,191.70
2023-05-10T07:21:39.802Z,196.60
2023-05-10T07:22:39.861Z,207.52
2023-05-10T07:23:39.903Z,219.22
2023-05-10T07:24:39.871Z,231.27
2023-05-10T07:25:39.868Z,227.37
2023-05-10T07:26:39.926Z,231.35
2023-05-10T07:27:39.870Z,215.79
2023-05-10T07:28:40.052Z,225.13
2023-05-10T07:29:39.986Z,223.77
2023-05-10T07:30:39.973Z,218.98
2023-05-10T07:31:39.939Z,209.06
2023-05-10T07:32:40.418Z,213.35
2023-05-10T07:33:39.963Z,178.89
2023-05-10T07:34:40.309Z,140.99
2023-05-10T07:35:39.936Z,129.54
2023-05-10T07:36:40.048Z,129.63
2023-05-10T07:37:39.973Z,151.17
2023-05-10T07:38:40.985Z,147.64
2023-05-10T07:39:40.182Z,146.15
2023-05-10T07:40:40.063Z,146.63
2023-05-10T07:41:40.081Z,160.32
2023-05-10T07:42:40.078Z,164.04
2023-05-10T07:43:40.084Z,165.31
2023-05-10T07:44:40.132Z,174.15
2023-05-10T07:45:40.184Z,173.68
2023-05-10T07:46:40.065Z,177.23
2023-05-10T07:47:40.136Z,178.33
2023-05-10T07:48:40.149Z,185.69
2023-05-10T07:49:40.240Z,184.62
2023-05-10T07:50:40.171Z,192.20
2023-05-10T07:51:40.191Z,187.29
2023-05-10T07:52:40.224Z,198.82
2023-05-10T07:53:40.312Z,208.10
2023-05-10T07:54:40.880Z,205.54
2023-05-10T07:55:40.267Z,205.58
2023-05-10T07:56:40.301Z,219.32
2023-05-10T07:57:40.319Z,224.02
2023-05-10T07:58:40.326Z,222.27
2023-05-10T07:59:40.364Z,225.25
2023-05-10T08:00:40.364Z,248.22
2023-05-10T08:01:40.461Z,244.03
2023-05-10T08:02:40.608Z,235.31
2023-05-10T08:03:40.562Z,240.35
2023-05-10T08:04:40.664Z,246.33
2023-05-10T08:05:40.663Z,242.36
2023-05-10T08:06:40.774Z,239.09
2023-05-10T08:07:40.812Z,215.09
2023-05-10T08:08:40.940Z,218.74
2023-05-10T08:09:40.884Z,209.70
2023-05-10T08:10:40.842Z,211.10
2023-05-10T08:11:40.929Z,219.72
2023-05-10T08:12:40.903Z,227.47
2023-05-10T08:13:40.996Z,224.47
2023-05-10T08:14:40.984Z,226.13
2023-05-10T08:15:41.022Z,231.89
2023-05-10T08:16:41.091Z,246.72
2023-05-10T08:17:41.079Z,238.76
2023-05-10T08:18:41.114Z,239.74
2023-05-10T08:19:41.331Z,238.32
2023-05-10T08:20:41.176Z,242.16
2023-05-10T08:21:41.265Z,250.00
2023-05-10T08:22:41.262Z,245.25
2023-05-10T08:23:41.338Z,237.10
2023-05-10T08:24:41.350Z,240.37
2023-05-10T08:25:41.426Z,239.33
2023-05-10T08:26:41.490Z,247.88
2023-05-10T08:27:41.565Z,241.13
2023-05-10T08:28:41.593Z,237.51
2023-05-10T08:29:49.574Z,229.43
2023-05-10T08:30:42.657Z,229.82
2023-05-10T08:31:41.674Z,230.62
2023-05-10T08:32:41.679Z,231.69
2023-05-10T08:33:43.774Z,233.55
2023-05-10T08:34:41.631Z,230.73
2023-05-10T08:35:41.626Z,229.66
2023-05-10T08:36:41.606Z,229.00
2023-05-10T08:37:41.594Z,229.65
2023-05-10T08:38:41.581Z,228.26
2023-05-10T08:39:41.692Z,232.45
2023-05-10T08:40:41.617Z,206.09
2023-05-10T08:41:41.579Z,212.37
2023-05-10T08:42:41.560Z,209.31
2023-05-10T08:43:41.570Z,216.89
2023-05-10T08:44:41.557Z,211.80
2023-05-10T08:45:41.827Z,220.16
2023-05-10T08:46:41.628Z,224.61
2023-05-10T08:47:41.589Z,223.69
2023-05-10T08:48:41.556Z,245.10
2023-05-10T08:49:41.531Z,238.80
2023-05-10T08:50:41.864Z,243.72
2023-05-10T08:51:41.908Z,248.94
2023-05-10T08:52:41.533Z,250.00
2023-05-10T08:53:41.496Z,249.76
2023-05-10T08:54:41.584Z,254.90
2023-05-10T08:55:41.522Z,244.29
2023-05-10T08:56:41.554Z,255.00
2023-05-10T08:57:41.630Z,249.27
2023-05-10T08:58:41.642Z,246.44
2023-05-10T08:59:41.699Z,250.00
2023-05-10T09:00:41.783Z,248.83
2023-05-10T09:01:41.803Z,245.66
2023-05-10T09:02:41.871Z,243.36
2023-05-10T09:03:41.968Z,240.83
2023-05-10T09:04:42.096Z,240.73
2023-05-10T09:05:42.028Z,246.52
2023-05-10T09:06:42.110Z,248.22
2023-05-10T09:07:42.128Z,249.98
2023-05-10T09:08:42.189Z,248.04
2023-05-10T09:09:42.247Z,250.00
2023-05-10T09:10:42.281Z,248.48
2023-05-10T09:11:42.343Z,250.00
2023-05-10T09:12:42.430Z,246.98
2023-05-10T09:13:42.479Z,247.09
2023-05-10T09:14:42.510Z,246.33
2023-05-10T09:15:42.580Z,250.00
2023-05-10T09:16:42.608Z,248.45
2023-05-10T09:17:42.695Z,249.75
2023-05-10T09:18:42.865Z,249.44
2023-05-10T09:19:42.857Z,249.23
2023-05-10T09:20:42.805Z,249.86
2023-05-10T09:21:42.874Z,247.99
2023-05-10T09:22:42.869Z,249.05
2023-05-10T09:23:42.950Z,247.86
2023-05-10T09:24:42.941Z,249.91
2023-05-10T09:25:43.010Z,245.48
2023-05-10T09:26:43.051Z,242.43
2023-05-10T09:27:43.283Z,247.66
2023-05-10T09:28:43.118Z,251.27
2023-05-10T09:29:43.177Z,247.69
2023-05-10T09:30:43.204Z,245.76
2023-05-10T09:31:43.280Z,243.97
2023-05-10T09:32:43.921Z,241.42
2023-05-10T09:33:43.902Z,231.05
2023-05-10T09:34:43.385Z,199.54
2023-05-10T09:35:43.438Z,155.58
2023-05-10T09:36:43.470Z,139.76
2023-05-10T09:37:43.534Z,142.54
2023-05-10T09:38:43.481Z,148.84
2023-05-10T09:39:43.475Z,150.10
2023-05-10T09:40:43.504Z,137.09
2023-05-10T09:41:43.469Z,131.93
2023-05-10T09:42:43.469Z,122.83
2023-05-10T09:43:43.460Z,118.50
2023-05-10T09:44:43.488Z,116.39
2023-05-10T09:45:43.484Z,118.37
2023-05-10T09:46:43.518Z,119.35
2023-05-10T09:47:43.528Z,118.33
2023-05-10T09:48:43.563Z,121.36
2023-05-10T09:49:43.563Z,122.71
2023-05-10T09:50:43.880Z,124.97
2023-05-10T09:51:43.633Z,115.38
2023-05-10T09:52:43.679Z,112.94
2023-05-10T09:53:43.778Z,99.19
2023-05-10T09:54:44.353Z,94.50
2023-05-10T09:55:43.854Z,95.17
2023-05-10T09:56:44.087Z,95.09
2023-05-10T09:57:44.007Z,93.34
2023-05-10T09:58:43.999Z,82.19
2023-05-10T09:59:44.040Z,74.98
2023-05-10T10:00:44.106Z,67.40
2023-05-10T10:01:44.180Z,65.12
2023-05-10T10:02:44.171Z,58.17
2023-05-10T10:03:44.089Z,59.99
2023-05-10T10:04:44.218Z,55.06
2023-05-10T10:05:44.087Z,59.28
2023-05-10T10:06:44.160Z,67.65
2023-05-10T10:07:44.857Z,66.20
2023-05-10T10:08:44.149Z,68.19
2023-05-10T10:09:44.144Z,57.52
2023-05-10T10:10:44.443Z,61.09
2023-05-10T10:11:44.200Z,61.11
2023-05-10T10:12:44.219Z,62.87
2023-05-10T10:13:44.253Z,75.41
2023-05-10T10:14:44.264Z,61.96
2023-05-10T10:15:44.419Z,62.09
2023-05-10T10:16:59.560Z,54.77
2023-05-10T10:17:45.955Z,54.79
2023-05-10T10:18:44.349Z,55.70
2023-05-10T10:19:44.329Z,56.55
2023-05-10T10:20:44.292Z,51.67
2023-05-10T10:21:44.324Z,47.35
2023-05-10T10:22:44.288Z,48.00
2023-05-10T10:23:44.491Z,53.54
2023-05-10T10:24:44.301Z,53.05
2023-05-10T10:25:44.279Z,53.06
2023-05-10T10:26:44.255Z,55.37
2023-05-10T10:27:44.247Z,54.19
2023-05-10T10:28:44.247Z,54.31
2023-05-10T10:29:44.226Z,49.73
2023-05-10T10:30:44.236Z,51.65
2023-05-10T10:31:44.274Z,51.03
2023-05-10T10:32:44.245Z,44.67
2023-05-10T10:33:45.710Z,47.81
2023-05-10T10:34:44.182Z,40.79
2023-05-10T10:35:44.214Z,39.65
2023-05-10T10:36:44.223Z,40.88
2023-05-10T10:37:44.263Z,37.01
2023-05-10T10:38:44.177Z,34.16
2023-05-10T10:39:44.388Z,36.72
2023-05-10T10:40:44.177Z,39.25
2023-05-10T10:41:44.163Z,34.90
2023-05-10T10:42:44.153Z,39.29
2023-05-10T10:43:44.115Z,42.42
2023-05-10T10:44:44.233Z,38.56
2023-05-10T10:45:44.140Z,43.77
2023-05-10T10:46:44.164Z,45.23
2023-05-10T10:47:44.120Z,49.54
2023-05-10T10:48:44.094Z,49.01
2023-05-10T10:49:44.177Z,42.28
2023-05-10T10:50:44.071Z,39.69
2023-05-10T10:51:44.128Z,34.38
2023-05-10T10:52:44.195Z,29.05
2023-05-10T10:53:44.080Z,28.32
2023-05-10T10:54:44.039Z,34.73
2023-05-10T10:55:44.056Z,31.12
2023-05-10T10:56:44.051Z,31.04
2023-05-10T10:57:44.026Z,23.57
2023-05-10T10:58:44.060Z,26.47
2023-05-10T10:59:44.061Z,28.02
2023-05-10T11:00:44.048Z,37.24
2023-05-10T11:01:43.997Z,44.46
2023-05-10T11:02:44.058Z,51.39
2023-05-10T11:03:43.994Z,56.28
2023-05-10T11:04:44.021Z,58.76
2023-05-10T11:05:43.976Z,59.64
2023-05-10T11:06:43.965Z,64.34
2023-05-10T11:07:43.947Z,64.42
2023-05-10T11:08:43.969Z,70.18
2023-05-10T11:09:44.132Z,72.57
2023-05-10T11:10:43.937Z,74.67
2023-05-10T11:11:43.969Z,79.70
2023-05-10T11:12:43.909Z,91.25
2023-05-10T11:13:44.105Z,91.69
2023-05-10T11:14:43.941Z,97.71
2023-05-10T11:15:43.887Z,97.86
2023-05-10T11:16:44.066Z,100.26
2023-05-10T11:17:43.937Z,106.53
2023-05-10T11:18:43.927Z,118.01
2023-05-10T11:19:43.858Z,110.91
2023-05-10T11:20:43.867Z,110.27
2023-05-10T11:21:43.850Z,109.19
2023-05-10T11:22:43.844Z,113.24
2023-05-10T11:23:43.842Z,110.27
2023-05-10T11:24:43.834Z,112.74
2023-05-10T11:25:43.891Z,114.81
2023-05-10T11:26:43.821Z,113.66
2023-05-10T11:27:43.801Z,114.64
2023-05-10T11:28:43.815Z,115.38
2023-05-10T11:29:43.827Z,116.95
2023-05-10T11:30:43.809Z,116.11
2023-05-10T11:31:43.815Z,119.17
2023-05-10T11:32:43.798Z,122.17
2023-05-10T11:33:43.761Z,122.67
2023-05-10T11:34:43.821Z,121.45
2023-05-10T11:35:43.939Z,123.76
2023-05-10T11:36:43.787Z,122.10
2023-05-10T11:37:43.762Z,123.25
2023-05-10T11:38:43.746Z,124.32
2023-05-10T11:39:43.730Z,122.91
2023-05-10T11:40:43.739Z,124.89
2023-05-10T11:41:43.720Z,123.25
2023-05-10T11:42:43.708Z,124.63
2023-05-10T11:43:43.704Z,127.67
2023-05-10T11:44:43.690Z,124.12
2023-05-10T11:45:43.681Z,128.70
2023-05-10T11:46:43.749Z,127.71
2023-05-10T11:47:43.725Z,129.10
2023-05-10T11:48:43.691Z,123.51
2023-05-10T11:49:43.679Z,128.38
2023-05-10T11:50:43.637Z,123.43
2023-05-10T11:51:43.667Z,125.85
2023-05-10T11:52:43.636Z,128.41
2023-05-10T11:53:43.657Z,130.53
2023-05-10T11:54:43.604Z,124.32
2023-05-10T11:55:43.617Z,124.43
2023-05-10T11:56:43.616Z,126.11
2023-05-10T11:57:43.609Z,127.60
2023-05-10T11:58:43.623Z,128.88
2023-05-10T11:59:43.586Z,129.71
2023-05-10T12:00:43.617Z,125.56
2023-05-10T12:01:43.625Z,127.77
2023-05-10T12:02:43.675Z,130.59
2023-05-10T12:03:43.715Z,126.22
2023-05-10T12:04:43.674Z,127.90
2023-05-10T12:05:43.616Z,127.04
2023-05-10T12:06:43.644Z,128.18
2023-05-10T12:07:43.655Z,128.65
2023-05-10T12:08:43.627Z,127.82
2023-05-10T12:09:44.478Z,127.67
2023-05-10T12:10:43.635Z,126.49
2023-05-10T12:11:44.460Z,123.78
2023-05-10T12:12:43.642Z,126.90
2023-05-10T12:13:43.655Z,130.55
2023-05-10T12:14:43.655Z,130.25
2023-05-10T12:15:43.659Z,131.18
2023-05-10T12:16:43.700Z,128.49
2023-05-10T12:17:43.716Z,128.90
2023-05-10T12:18:43.779Z,125.94
2023-05-10T12:19:43.675Z,127.31
2023-05-10T12:20:43.677Z,124.99
2023-05-10T12:21:43.690Z,127.22
2023-05-10T12:22:43.679Z,127.33
2023-05-10T12:23:43.645Z,128.98
2023-05-10T12:24:43.653Z,130.82
2023-05-10T12:25:43.686Z,131.94
2023-05-10T12:26:43.722Z,132.03
2023-05-10T12:27:43.758Z,129.71
2023-05-10T12:28:43.786Z,130.29
2023-05-10T12:29:43.799Z,126.70
2023-05-10T12:30:43.830Z,128.50
2023-05-10T12:31:43.875Z,130.91
2023-05-10T12:32:43.879Z,126.15
2023-05-10T12:33:43.830Z,127.49
2023-05-10T12:34:43.851Z,126.34
2023-05-10T12:35:43.839Z,120.71
2023-05-10T12:36:43.841Z,113.09
2023-05-10T12:37:43.840Z,93.57
2023-05-10T12:38:43.872Z,99.94
2023-05-10T12:39:43.879Z,105.80
2023-05-10T12:40:43.899Z,99.12
2023-05-10T12:41:43.899Z,87.44
2023-05-10T12:42:43.917Z,86.72
2023-05-10T12:43:43.894Z,69.52
2023-05-10T12:44:43.918Z,78.74
2023-05-10T12:45:43.914Z,76.53
2023-05-10T12:46:43.939Z,68.46
2023-05-10T12:47:44.232Z,71.76
2023-05-10T12:48:44.010Z,65.12
2023-05-10T12:49:43.969Z,78.68
2023-05-10T12:50:44.022Z,84.92